sensor_id;sensor_type;location;lat;lon;timestamp;pressure;altitude;pressure_sealevel;temperature;humidity
34674;BME280;20879;55.668;37.858;2023-04-23T00:02:29;99550.50;;;8.98;49.37
34674;BME280;20879;55.668;37.858;2023-04-23T00:05:03;99551.53;;;8.83;49.24
34674;BME280;20879;55.668;37.858;2023-04-23T00:07:35;99547.53;;;8.53;49.61
34674;BME280;20879;55.668;37.858;2023-04-23T00:10:06;99551.94;;;8.35;50.54
34674;BME280;20879;55.668;37.858;2023-04-23T00:12:36;99558.94;;;8.21;51.09
34674;BME280;20879;55.668;37.858;2023-04-23T00:15:07;99561.63;;;8.10;51.48
34674;BME280;20879;55.668;37.858;2023-04-23T00:17:39;99560.75;;;8.08;52.42
34674;BME280;20879;55.668;37.858;2023-04-23T00:20:15;99564.28;;;8.01;52.24
34674;BME280;20879;55.668;37.858;2023-04-23T00:22:45;99566.84;;;7.96;52.16
34674;BME280;20879;55.668;37.858;2023-04-23T00:25:15;99569.50;;;7.90;52.51
34674;BME280;20879;55.668;37.858;2023-04-23T00:27:46;99565.22;;;7.86;52.92
34674;BME280;20879;55.668;37.858;2023-04-23T00:30:15;99571.22;;;7.88;52.99
34674;BME280;20879;55.668;37.858;2023-04-23T00:32:55;99570.41;;;7.81;53.72
34674;BME280;20879;55.668;37.858;2023-04-23T00:35:25;99571.25;;;7.83;53.21
34674;BME280;20879;55.668;37.858;2023-04-23T00:37:54;99578.00;;;8.01;53.21
34674;BME280;20879;55.668;37.858;2023-04-23T00:40:23;99580.53;;;8.08;53.22
34674;BME280;20879;55.668;37.858;2023-04-23T00:42:53;99586.53;;;8.14;53.03
34674;BME280;20879;55.668;37.858;2023-04-23T00:45:23;99583.03;;;8.17;53.06
34674;BME280;20879;55.668;37.858;2023-04-23T00:47:55;99581.34;;;8.16;52.83
34674;BME280;20879;55.668;37.858;2023-04-23T00:50:25;99588.22;;;8.20;52.98
34674;BME280;20879;55.668;37.858;2023-04-23T00:52:54;99588.19;;;8.18;52.35
34674;BME280;20879;55.668;37.858;2023-04-23T00:55:23;99589.88;;;8.24;52.34
34674;BME280;20879;55.668;37.858;2023-04-23T00:57:53;99590.66;;;8.34;52.51
34674;BME280;20879;55.668;37.858;2023-04-23T01:00:23;99591.50;;;8.34;51.83
34674;BME280;20879;55.668;37.858;2023-04-23T01:02:52;99594.13;;;8.28;52.22
34674;BME280;20879;55.668;37.858;2023-04-23T01:05:26;99595.88;;;8.26;52.52
34674;BME280;20879;55.668;37.858;2023-04-23T01:07:56;99591.56;;;8.28;52.33
34674;BME280;20879;55.668;37.858;2023-04-23T01:10:26;99598.41;;;8.34;52.13
34674;BME280;20879;55.668;37.858;2023-04-23T01:12:58;99592.31;;;8.44;52.20
34674;BME280;20879;55.668;37.858;2023-04-23T01:15:33;99595.75;;;8.45;52.16
34674;BME280;20879;55.668;37.858;2023-04-23T01:18:02;99595.78;;;8.37;51.68
34674;BME280;20879;55.668;37.858;2023-04-23T01:20:42;99596.66;;;8.34;51.89
34674;BME280;20879;55.668;37.858;2023-04-23T01:23:14;99592.41;;;8.33;52.27
34674;BME280;20879;55.668;37.858;2023-04-23T01:25:44;99585.50;;;8.35;51.59
34674;BME280;20879;55.668;37.858;2023-04-23T01:28:14;99594.06;;;8.40;52.00
34674;BME280;20879;55.668;37.858;2023-04-23T01:30:44;99590.66;;;8.35;51.91
34674;BME280;20879;55.668;37.858;2023-04-23T01:33:15;99594.19;;;8.23;52.29
34674;BME280;20879;55.668;37.858;2023-04-23T01:35:50;99588.28;;;8.06;53.56
34674;BME280;20879;55.668;37.858;2023-04-23T01:38:22;99590.16;;;7.84;54.61
34674;BME280;20879;55.668;37.858;2023-04-23T01:40:51;99596.28;;;7.58;54.82
34674;BME280;20879;55.668;37.858;2023-04-23T01:43:26;99598.13;;;7.34;56.15
34674;BME280;20879;55.668;37.858;2023-04-23T01:46:06;99589.66;;;7.06;58.79
34674;BME280;20879;55.668;37.858;2023-04-23T01:48:36;99607.69;;;6.88;58.27
34674;BME280;20879;55.668;37.858;2023-04-23T01:51:06;99605.16;;;6.63;59.14
34674;BME280;20879;55.668;37.858;2023-04-23T01:53:37;99609.44;;;6.44;60.81
34674;BME280;20879;55.668;37.858;2023-04-23T01:56:07;99618.03;;;6.34;60.69
34674;BME280;20879;55.668;37.858;2023-04-23T01:58:43;99607.75;;;6.21;61.65
34674;BME280;20879;55.668;37.858;2023-04-23T02:01:13;99612.88;;;6.12;62.28
34674;BME280;20879;55.668;37.858;2023-04-23T02:03:48;99615.44;;;6.07;62.57
34674;BME280;20879;55.668;37.858;2023-04-23T02:06:18;99619.72;;;6.10;62.31
34674;BME280;20879;55.668;37.858;2023-04-23T02:08:50;99627.44;;;6.13;63.22
34674;BME280;20879;55.668;37.858;2023-04-23T02:11:20;99626.59;;;6.22;63.75
34674;BME280;20879;55.668;37.858;2023-04-23T02:13:49;99625.75;;;6.15;61.91
34674;BME280;20879;55.668;37.858;2023-04-23T02:16:18;99630.00;;;6.15;62.49
34674;BME280;20879;55.668;37.858;2023-04-23T02:18:50;99626.59;;;6.22;62.58
34674;BME280;20879;55.668;37.858;2023-04-23T02:21:20;99617.19;;;6.27;62.20
34674;BME280;20879;55.668;37.858;2023-04-23T02:23:56;99630.03;;;6.42;62.62
34674;BME280;20879;55.668;37.858;2023-04-23T02:26:25;99629.19;;;6.53;61.89
34674;BME280;20879;55.668;37.858;2023-04-23T02:28:55;99630.03;;;6.62;61.35
34674;BME280;20879;55.668;37.858;2023-04-23T02:31:29;99605.16;;;6.55;61.14
34674;BME280;20879;55.668;37.858;2023-04-23T02:33:59;99632.59;;;6.81;61.46
34674;BME280;20879;55.668;37.858;2023-04-23T02:36:29;99610.28;;;6.66;61.35
34674;BME280;20879;55.668;37.858;2023-04-23T02:39:01;99640.31;;;6.86;62.17
34674;BME280;20879;55.668;37.858;2023-04-23T02:41:30;99632.59;;;6.87;61.37
34674;BME280;20879;55.668;37.858;2023-04-23T02:43:59;99636.03;;;6.86;62.07
34674;BME280;20879;55.668;37.858;2023-04-23T02:46:29;99633.44;;;6.85;62.30
34674;BME280;20879;55.668;37.858;2023-04-23T02:48:59;99636.88;;;6.87;62.32
34674;BME280;20879;55.668;37.858;2023-04-23T02:51:34;99641.16;;;6.89;62.73
34674;BME280;20879;55.668;37.858;2023-04-23T02:54:05;99644.59;;;6.94;63.02
34674;BME280;20879;55.668;37.858;2023-04-23T02:56:34;99642.88;;;6.96;62.38
34674;BME280;20879;55.668;37.858;2023-04-23T02:59:04;99632.56;;;6.93;62.83
34674;BME280;20879;55.668;37.858;2023-04-23T03:01:35;99645.44;;;7.01;62.70
34674;BME280;20879;55.668;37.858;2023-04-23T03:04:06;99653.13;;;7.18;63.19
34674;BME280;20879;55.668;37.858;2023-04-23T03:06:36;99652.25;;;7.14;62.12
34674;BME280;20879;55.668;37.858;2023-04-23T03:09:07;99655.72;;;7.16;62.36
34674;BME280;20879;55.668;37.858;2023-04-23T03:11:37;99661.69;;;7.29;62.97
34674;BME280;20879;55.668;37.858;2023-04-23T03:14:10;99669.41;;;7.18;62.20
34674;BME280;20879;55.668;37.858;2023-04-23T03:16:39;99664.28;;;7.17;62.52
34674;BME280;20879;55.668;37.858;2023-04-23T03:19:09;99665.16;;;7.19;62.29
34674;BME280;20879;55.668;37.858;2023-04-23T03:21:38;99671.09;;;7.30;62.58
34674;BME280;20879;55.668;37.858;2023-04-23T03:24:12;99673.69;;;7.40;63.33
34674;BME280;20879;55.668;37.858;2023-04-23T03:26:41;99656.53;;;7.31;62.08
34674;BME280;20879;55.668;37.858;2023-04-23T03:29:17;99676.19;;;7.63;62.82
34674;BME280;20879;55.668;37.858;2023-04-23T03:31:47;99672.69;;;7.72;61.57
34674;BME280;20879;55.668;37.858;2023-04-23T03:34:17;99669.22;;;7.82;61.12
34674;BME280;20879;55.668;37.858;2023-04-23T03:36:46;99676.81;;;8.07;60.74
34674;BME280;20879;55.668;37.858;2023-04-23T03:39:24;99666.41;;;8.25;60.47
34674;BME280;20879;55.668;37.858;2023-04-23T03:41:54;99674.84;;;8.49;59.87
34674;BME280;20879;55.668;37.858;2023-04-23T03:44:27;99681.59;;;8.71;59.25
34674;BME280;20879;55.668;37.858;2023-04-23T03:46:57;99685.69;;;8.94;58.86
34674;BME280;20879;55.668;37.858;2023-04-23T03:49:33;99673.41;;;9.16;58.30
34674;BME280;20879;55.668;37.858;2023-04-23T03:52:02;99687.06;;;9.31;57.56
34674;BME280;20879;55.668;37.858;2023-04-23T03:54:37;99686.84;;;9.49;57.40
34674;BME280;20879;55.668;37.858;2023-04-23T03:57:27;99687.47;;;9.71;56.91
34674;BME280;20879;55.668;37.858;2023-04-23T04:00:24;99675.78;;;10.08;55.71
34674;BME280;20879;55.668;37.858;2023-04-23T04:02:53;99697.34;;;10.69;54.67
34674;BME280;20879;55.668;37.858;2023-04-23T04:05:25;99690.38;;;11.23;53.19
34674;BME280;20879;55.668;37.858;2023-04-23T04:08:00;99691.03;;;11.79;51.82
34674;BME280;20879;55.668;37.858;2023-04-23T04:10:33;99695.75;;;12.41;49.93
34674;BME280;20879;55.668;37.858;2023-04-23T04:13:03;99694.69;;;12.86;49.00
34674;BME280;20879;55.668;37.858;2023-04-23T04:15:32;99690.06;;;13.31;47.62
34674;BME280;20879;55.668;37.858;2023-04-23T04:18:02;99685.47;;;13.73;45.96
34674;BME280;20879;55.668;37.858;2023-04-23T04:20:32;99683.47;;;14.13;44.91
34674;BME280;20879;55.668;37.858;2023-04-23T04:23:02;99682.25;;;14.51;43.67
34674;BME280;20879;55.668;37.858;2023-04-23T04:25:34;99691.06;;;15.02;41.82
34674;BME280;20879;55.668;37.858;2023-04-23T04:28:10;99693.78;;;15.25;41.81
34674;BME280;20879;55.668;37.858;2023-04-23T04:30:41;99691.59;;;15.37;41.25
34674;BME280;20879;55.668;37.858;2023-04-23T04:33:10;99691.47;;;15.41;40.57
34674;BME280;20879;55.668;37.858;2023-04-23T04:35:41;99692.66;;;15.32;40.12
34674;BME280;20879;55.668;37.858;2023-04-23T04:38:11;99692.44;;;15.13;40.17
34674;BME280;20879;55.668;37.858;2023-04-23T04:40:48;99704.28;;;14.96;39.45
34674;BME280;20879;55.668;37.858;2023-04-23T04:43:18;99703.91;;;14.82;40.02
34674;BME280;20879;55.668;37.858;2023-04-23T04:45:48;99714.06;;;14.63;40.81
34674;BME280;20879;55.668;37.858;2023-04-23T04:48:22;99709.06;;;14.55;40.69
34674;BME280;20879;55.668;37.858;2023-04-23T04:50:52;99704.94;;;14.48;40.82
34674;BME280;20879;55.668;37.858;2023-04-23T04:53:21;99711.22;;;14.42;40.05
34674;BME280;20879;55.668;37.858;2023-04-23T04:55:53;99711.00;;;14.20;40.50
34674;BME280;20879;55.668;37.858;2023-04-23T04:58:22;99714.06;;;14.05;39.84
34674;BME280;20879;55.668;37.858;2023-04-23T05:00:51;99710.03;;;13.94;39.88
34674;BME280;20879;55.668;37.858;2023-04-23T05:03:21;99716.25;;;13.89;39.86
34674;BME280;20879;55.668;37.858;2023-04-23T05:05:52;99711.84;;;13.91;39.56
34674;BME280;20879;55.668;37.858;2023-04-23T05:08:22;99714.50;;;14.19;39.44
34674;BME280;20879;55.668;37.858;2023-04-23T05:11:04;99721.59;;;14.44;38.24
34674;BME280;20879;55.668;37.858;2023-04-23T05:13:34;99715.81;;;14.61;38.21
34674;BME280;20879;55.668;37.858;2023-04-23T05:16:03;99723.03;;;15.08;37.04
34674;BME280;20879;55.668;37.858;2023-04-23T05:18:32;99724.94;;;15.53;36.93
34674;BME280;20879;55.668;37.858;2023-04-23T05:21:02;99730.25;;;16.00;35.72
34674;BME280;20879;55.668;37.858;2023-04-23T05:23:32;99722.91;;;16.32;35.43
34674;BME280;20879;55.668;37.858;2023-04-23T05:26:09;99726.03;;;16.42;35.22
34674;BME280;20879;55.668;37.858;2023-04-23T05:28:38;99721.09;;;16.78;34.30
34674;BME280;20879;55.668;37.858;2023-04-23T05:31:08;99729.84;;;17.00;34.18
34674;BME280;20879;55.668;37.858;2023-04-23T05:33:37;99688.84;;;16.57;33.62
34674;BME280;20879;55.668;37.858;2023-04-23T05:36:21;99732.72;;;16.93;33.89
34674;BME280;20879;55.668;37.858;2023-04-23T05:38:50;99726.59;;;16.94;33.73
34674;BME280;20879;55.668;37.858;2023-04-23T05:41:21;99725.56;;;16.99;32.90
34674;BME280;20879;55.668;37.858;2023-04-23T05:43:51;99724.38;;;16.84;32.87
34674;BME280;20879;55.668;37.858;2023-04-23T05:46:21;99736.91;;;16.75;33.56
34674;BME280;20879;55.668;37.858;2023-04-23T05:48:55;99723.66;;;16.80;33.19
34674;BME280;20879;55.668;37.858;2023-04-23T05:51:30;99736.09;;;16.97;33.21
34674;BME280;20879;55.668;37.858;2023-04-23T05:54:00;99738.19;;;17.09;33.05
34674;BME280;20879;55.668;37.858;2023-04-23T05:56:31;99726.41;;;17.40;32.77
34674;BME280;20879;55.668;37.858;2023-04-23T05:59:01;99727.31;;;17.39;32.13
34674;BME280;20879;55.668;37.858;2023-04-23T06:01:35;99725.91;;;17.32;32.26
34674;BME280;20879;55.668;37.858;2023-04-23T06:04:06;99735.75;;;17.25;32.04
34674;BME280;20879;55.668;37.858;2023-04-23T06:06:36;99719.53;;;17.17;32.69
34674;BME280;20879;55.668;37.858;2023-04-23T06:12:02;99741.53;;;17.54;32.53
34674;BME280;20879;55.668;37.858;2023-04-23T06:14:32;99742.72;;;17.87;32.31
34674;BME280;20879;55.668;37.858;2023-04-23T06:17:01;99725.75;;;17.95;31.96
34674;BME280;20879;55.668;37.858;2023-04-23T06:19:30;99725.03;;;18.11;31.95
34674;BME280;20879;55.668;37.858;2023-04-23T06:22:05;99748.47;;;18.33;31.23
34674;BME280;20879;55.668;37.858;2023-04-23T06:24:34;99753.94;;;18.09;31.61
34674;BME280;20879;55.668;37.858;2023-04-23T06:27:06;99745.59;;;18.01;31.54
34674;BME280;20879;55.668;37.858;2023-04-23T06:29:44;99742.75;;;18.06;31.00
34674;BME280;20879;55.668;37.858;2023-04-23T06:32:20;99750.19;;;17.75;31.26
34674;BME280;20879;55.668;37.858;2023-04-23T06:34:49;99747.81;;;17.50;31.45
34674;BME280;20879;55.668;37.858;2023-04-23T06:37:30;99754.53;;;17.56;31.76
34674;BME280;20879;55.668;37.858;2023-04-23T06:39:59;99762.41;;;17.35;31.97
34674;BME280;20879;55.668;37.858;2023-04-23T06:42:36;99763.09;;;17.39;32.56
34674;BME280;20879;55.668;37.858;2023-04-23T06:45:32;99755.59;;;17.31;32.15
34674;BME280;20879;55.668;37.858;2023-04-23T06:48:02;99772.47;;;17.44;32.35
34674;BME280;20879;55.668;37.858;2023-04-23T06:50:36;99762.59;;;17.51;32.43
34674;BME280;20879;55.668;37.858;2023-04-23T06:53:06;99754.75;;;17.51;32.17
34674;BME280;20879;55.668;37.858;2023-04-23T06:55:35;99770.50;;;17.91;32.15
34674;BME280;20879;55.668;37.858;2023-04-23T06:58:06;99768.16;;;18.23;31.28
34674;BME280;20879;55.668;37.858;2023-04-23T07:00:37;99765.63;;;18.40;31.38
34674;BME280;20879;55.668;37.858;2023-04-23T07:03:07;99775.59;;;18.70;30.91
34674;BME280;20879;55.668;37.858;2023-04-23T07:05:36;99772.88;;;18.91;30.59
34674;BME280;20879;55.668;37.858;2023-04-23T07:08:06;99774.53;;;19.11;29.58
34674;BME280;20879;55.668;37.858;2023-04-23T07:10:40;99772.97;;;19.07;28.18
34674;BME280;20879;55.668;37.858;2023-04-23T07:13:12;99777.28;;;18.71;28.79
34674;BME280;20879;55.668;37.858;2023-04-23T07:15:41;99763.38;;;18.69;28.57
34674;BME280;20879;55.668;37.858;2023-04-23T07:18:11;99759.47;;;18.41;28.58
34674;BME280;20879;55.668;37.858;2023-04-23T07:20:40;99772.28;;;18.09;29.21
34674;BME280;20879;55.668;37.858;2023-04-23T07:23:14;99780.78;;;17.95;29.42
34674;BME280;20879;55.668;37.858;2023-04-23T07:25:44;99766.41;;;17.84;29.87
34674;BME280;20879;55.668;37.858;2023-04-23T07:28:15;99759.09;;;17.71;29.62
34674;BME280;20879;55.668;37.858;2023-04-23T07:30:50;99773.13;;;17.70;29.61
34674;BME280;20879;55.668;37.858;2023-04-23T07:33:20;99770.38;;;17.73;29.68
34674;BME280;20879;55.668;37.858;2023-04-23T07:36:01;99758.53;;;17.64;30.01
34674;BME280;20879;55.668;37.858;2023-04-23T07:38:36;99771.28;;;17.52;30.00
34674;BME280;20879;55.668;37.858;2023-04-23T07:41:06;99753.63;;;17.36;30.09
34674;BME280;20879;55.668;37.858;2023-04-23T07:43:37;99774.69;;;17.54;30.13
34674;BME280;20879;55.668;37.858;2023-04-23T07:46:06;99771.88;;;17.79;29.93
34674;BME280;20879;55.668;37.858;2023-04-23T07:48:36;99778.22;;;17.73;29.58
34674;BME280;20879;55.668;37.858;2023-04-23T07:51:11;99739.88;;;17.31;29.74
34674;BME280;20879;55.668;37.858;2023-04-23T07:53:40;99777.03;;;17.80;28.98
34674;BME280;20879;55.668;37.858;2023-04-23T07:56:10;99775.19;;;18.03;28.93
34674;BME280;20879;55.668;37.858;2023-04-23T07:58:52;99763.88;;;18.41;28.85
34674;BME280;20879;55.668;37.858;2023-04-23T08:01:24;99755.47;;;18.51;28.34
34674;BME280;20879;55.668;37.858;2023-04-23T08:03:54;99766.69;;;18.92;27.83
34674;BME280;20879;55.668;37.858;2023-04-23T08:06:33;99763.97;;;19.12;27.34
34674;BME280;20879;55.668;37.858;2023-04-23T08:09:04;99763.47;;;19.04;27.18
34674;BME280;20879;55.668;37.858;2023-04-23T08:11:35;99764.94;;;18.92;27.54
34674;BME280;20879;55.668;37.858;2023-04-23T08:14:06;99767.13;;;18.82;26.94
34674;BME280;20879;55.668;37.858;2023-04-23T08:16:35;99767.16;;;19.00;27.36
34674;BME280;20879;55.668;37.858;2023-04-23T08:19:23;99768.31;;;18.94;26.69
34674;BME280;20879;55.668;37.858;2023-04-23T08:21:57;99767.34;;;19.14;26.93
34674;BME280;20879;55.668;37.858;2023-04-23T08:24:26;99768.19;;;18.78;26.50
34674;BME280;20879;55.668;37.858;2023-04-23T08:26:56;99756.44;;;19.04;26.38
34674;BME280;20879;55.668;37.858;2023-04-23T08:29:40;99764.78;;;19.48;26.26
34674;BME280;20879;55.668;37.858;2023-04-23T08:32:10;99762.38;;;19.61;25.94
34674;BME280;20879;55.668;37.858;2023-04-23T08:34:48;99771.56;;;19.69;25.66
34674;BME280;20879;55.668;37.858;2023-04-23T08:37:17;99767.94;;;19.37;25.60
34674;BME280;20879;55.668;37.858;2023-04-23T08:39:56;99763.16;;;18.93;26.04
34674;BME280;20879;55.668;37.858;2023-04-23T08:42:33;99773.13;;;18.86;25.86
34674;BME280;20879;55.668;37.858;2023-04-23T08:45:17;99733.75;;;18.49;25.91
34674;BME280;20879;55.668;37.858;2023-04-23T08:47:46;99767.03;;;18.28;26.13
34674;BME280;20879;55.668;37.858;2023-04-23T08:50:18;99766.97;;;18.11;26.62
34674;BME280;20879;55.668;37.858;2023-04-23T08:52:49;99760.13;;;18.08;26.65
34674;BME280;20879;55.668;37.858;2023-04-23T08:55:22;99753.03;;;18.10;27.12
34674;BME280;20879;55.668;37.858;2023-04-23T08:57:57;99770.38;;;17.73;27.25
34674;BME280;20879;55.668;37.858;2023-04-23T09:00:35;99762.53;;;17.32;27.45
34674;BME280;20879;55.668;37.858;2023-04-23T09:03:18;99765.06;;;17.13;27.94
34674;BME280;20879;55.668;37.858;2023-04-23T09:05:48;99757.34;;;16.88;27.83
34674;BME280;20879;55.668;37.858;2023-04-23T09:08:19;99768.25;;;16.99;28.69
34674;BME280;20879;55.668;37.858;2023-04-23T09:10:50;99767.34;;;17.00;28.03
34674;BME280;20879;55.668;37.858;2023-04-23T09:13:21;99759.56;;;16.99;27.89
34674;BME280;20879;55.668;37.858;2023-04-23T09:15:52;99763.47;;;16.88;28.16
34674;BME280;20879;55.668;37.858;2023-04-23T09:18:22;99759.56;;;16.75;28.32
34674;BME280;20879;55.668;37.858;2023-04-23T09:20:52;99751.63;;;16.78;28.44
34674;BME280;20879;55.668;37.858;2023-04-23T09:23:22;99738.16;;;16.89;28.33
34674;BME280;20879;55.668;37.858;2023-04-23T09:25:51;99751.50;;;17.03;28.20
34674;BME280;20879;55.668;37.858;2023-04-23T09:28:33;99746.63;;;17.16;27.92
34674;BME280;20879;55.668;37.858;2023-04-23T09:31:11;99750.41;;;17.09;27.90
34674;BME280;20879;55.668;37.858;2023-04-23T09:33:40;99742.88;;;17.22;27.77
34674;BME280;20879;55.668;37.858;2023-04-23T09:36:14;99734.06;;;17.24;27.89
34674;BME280;20879;55.668;37.858;2023-04-23T09:38:49;99742.09;;;17.20;27.76
34674;BME280;20879;55.668;37.858;2023-04-23T09:41:24;99744.03;;;16.94;27.88
34674;BME280;20879;55.668;37.858;2023-04-23T09:43:55;99747.88;;;16.85;28.28
34674;BME280;20879;55.668;37.858;2023-04-23T09:46:37;99742.41;;;16.91;28.76
34674;BME280;20879;55.668;37.858;2023-04-23T09:49:25;99728.47;;;16.69;28.27
34674;BME280;20879;55.668;37.858;2023-04-23T09:52:04;99740.00;;;16.63;28.47
34674;BME280;20879;55.668;37.858;2023-04-23T09:54:34;99728.78;;;16.61;28.27
34674;BME280;20879;55.668;37.858;2023-04-23T09:57:10;99735.22;;;16.52;28.25
34674;BME280;20879;55.668;37.858;2023-04-23T09:59:39;99734.56;;;16.69;28.89
34674;BME280;20879;55.668;37.858;2023-04-23T10:02:19;99729.50;;;16.87;28.12
34674;BME280;20879;55.668;37.858;2023-04-23T10:04:55;99684.41;;;16.59;28.49
34674;BME280;20879;55.668;37.858;2023-04-23T10:07:41;99748.66;;;16.87;27.82
34674;BME280;20879;55.668;37.858;2023-04-23T10:10:11;99735.34;;;16.71;28.29
34674;BME280;20879;55.668;37.858;2023-04-23T10:12:41;99738.84;;;16.70;28.27
34674;BME280;20879;55.668;37.858;2023-04-23T10:15:39;99728.06;;;16.57;28.21
34674;BME280;20879;55.668;37.858;2023-04-23T10:18:31;99727.88;;;16.62;28.39
34674;BME280;20879;55.668;37.858;2023-04-23T10:21:04;99700.88;;;16.39;28.29
34674;BME280;20879;55.668;37.858;2023-04-23T10:23:40;99735.28;;;16.51;28.74
34674;BME280;20879;55.668;37.858;2023-04-23T10:26:13;99725.47;;;16.56;28.73
34674;BME280;20879;55.668;37.858;2023-04-23T10:28:46;99721.19;;;16.55;28.56
34674;BME280;20879;55.668;37.858;2023-04-23T10:31:18;99729.22;;;16.50;29.04
34674;BME280;20879;55.668;37.858;2023-04-23T10:33:51;99703.28;;;16.44;28.82
34674;BME280;20879;55.668;37.858;2023-04-23T10:36:26;99726.72;;;16.69;28.71
34674;BME280;20879;55.668;37.858;2023-04-23T10:38:55;99711.56;;;16.77;28.21
34674;BME280;20879;55.668;37.858;2023-04-23T10:41:36;99701.53;;;16.67;28.34
34674;BME280;20879;55.668;37.858;2023-04-23T10:44:08;99708.09;;;16.77;28.49
34674;BME280;20879;55.668;37.858;2023-04-23T10:46:50;99676.53;;;16.82;28.24
34674;BME280;20879;55.668;37.858;2023-04-23T10:49:23;99711.47;;;17.01;28.25
34674;BME280;20879;55.668;37.858;2023-04-23T10:51:58;99704.44;;;17.03;27.80
34674;BME280;20879;55.668;37.858;2023-04-23T10:54:32;99712.78;;;17.11;27.97
34674;BME280;20879;55.668;37.858;2023-04-23T10:57:04;99696.19;;;17.12;28.40
34674;BME280;20879;55.668;37.858;2023-04-23T10:59:37;99711.09;;;17.10;28.15
34674;BME280;20879;55.668;37.858;2023-04-23T11:02:08;99695.53;;;17.07;28.49
34674;BME280;20879;55.668;37.858;2023-04-23T11:04:53;99694.16;;;16.99;28.06
34674;BME280;20879;55.668;37.858;2023-04-23T11:07:41;99706.44;;;17.17;27.84
34674;BME280;20879;55.668;37.858;2023-04-23T11:10:13;99694.75;;;17.26;27.75
34674;BME280;20879;55.668;37.858;2023-04-23T11:12:43;99695.91;;;17.39;27.87
34674;BME280;20879;55.668;37.858;2023-04-23T11:15:14;99686.69;;;17.51;27.63
34674;BME280;20879;55.668;37.858;2023-04-23T11:17:59;99687.31;;;17.56;27.29
34674;BME280;20879;55.668;37.858;2023-04-23T11:20:31;99689.72;;;17.61;27.29
34674;BME280;20879;55.668;37.858;2023-04-23T11:23:00;99692.56;;;17.56;27.73
34674;BME280;20879;55.668;37.858;2023-04-23T11:25:34;99692.56;;;17.56;27.57
34674;BME280;20879;55.668;37.858;2023-04-23T11:28:11;99690.91;;;17.54;27.74
34674;BME280;20879;55.668;37.858;2023-04-23T11:30:41;99685.44;;;17.39;27.39
34674;BME280;20879;55.668;37.858;2023-04-23T11:33:11;99686.44;;;17.37;27.51
34674;BME280;20879;55.668;37.858;2023-04-23T11:35:43;99696.78;;;17.40;27.29
34674;BME280;20879;55.668;37.858;2023-04-23T11:38:13;99695.13;;;17.37;27.58
34674;BME280;20879;55.668;37.858;2023-04-23T11:40:45;99686.66;;;17.32;27.29
34674;BME280;20879;55.668;37.858;2023-04-23T11:43:17;99680.47;;;17.33;27.79
34674;BME280;20879;55.668;37.858;2023-04-23T11:45:47;99683.22;;;17.30;27.29
34674;BME280;20879;55.668;37.858;2023-04-23T11:48:22;99679.09;;;17.24;27.40
34674;BME280;20879;55.668;37.858;2023-04-23T11:50:55;99685.97;;;17.27;27.47
34674;BME280;20879;55.668;37.858;2023-04-23T11:53:25;99672.63;;;17.33;27.27
34674;BME280;20879;55.668;37.858;2023-04-23T11:55:54;99678.25;;;17.44;27.49
34674;BME280;20879;55.668;37.858;2023-04-23T11:58:24;99679.88;;;17.47;27.23
34674;BME280;20879;55.668;37.858;2023-04-23T12:00:56;99657.44;;;17.41;26.97
34674;BME280;20879;55.668;37.858;2023-04-23T12:03:28;99682.22;;;17.53;27.10
34674;BME280;20879;55.668;37.858;2023-04-23T12:05:59;99677.50;;;17.61;27.42
34674;BME280;20879;55.668;37.858;2023-04-23T12:08:30;99678.72;;;17.73;27.05
34674;BME280;20879;55.668;37.858;2023-04-23T12:11:02;99670.06;;;17.71;27.26
34674;BME280;20879;55.668;37.858;2023-04-23T12:13:32;99670.06;;;17.71;26.73
34674;BME280;20879;55.668;37.858;2023-04-23T12:16:02;99666.53;;;17.72;26.97
34674;BME280;20879;55.668;37.858;2023-04-23T12:18:38;99652.78;;;17.67;27.05
34674;BME280;20879;55.668;37.858;2023-04-23T12:21:12;99670.66;;;17.78;26.82
34674;BME280;20879;55.668;37.858;2023-04-23T12:23:55;99655.47;;;17.85;27.14
34674;BME280;20879;55.668;37.858;2023-04-23T12:26:25;99663.56;;;17.80;26.55
34674;BME280;20879;55.668;37.858;2023-04-23T12:28:57;99668.88;;;17.78;27.00
34674;BME280;20879;55.668;37.858;2023-04-23T12:31:28;99671.19;;;17.85;26.69
34674;BME280;20879;55.668;37.858;2023-04-23T12:34:01;99670.28;;;17.86;26.69
34674;BME280;20879;55.668;37.858;2023-04-23T12:36:34;99660.66;;;17.86;26.65
34674;BME280;20879;55.668;37.858;2023-04-23T12:39:27;99645.28;;;17.78;26.63
34674;BME280;20879;55.668;37.858;2023-04-23T12:41:58;99662.28;;;17.89;26.43
34674;BME280;20879;55.668;37.858;2023-04-23T12:51:55;99654.34;;;17.71;26.42
34674;BME280;20879;55.668;37.858;2023-04-23T12:54:29;99650.81;;;17.72;26.83
34674;BME280;20879;55.668;37.858;2023-04-23T12:56:59;99647.69;;;17.83;26.85
34674;BME280;20879;55.668;37.858;2023-04-23T12:59:29;99641.84;;;17.78;26.95
34674;BME280;20879;55.668;37.858;2023-04-23T13:02:12;99644.75;;;17.72;26.66
34674;BME280;20879;55.668;37.858;2023-04-23T13:04:41;99610.13;;;17.46;26.92
34674;BME280;20879;55.668;37.858;2023-04-23T13:07:13;99627.41;;;17.69;27.41
34674;BME280;20879;55.668;37.858;2023-04-23T13:09:42;99636.16;;;17.87;27.17
34674;BME280;20879;55.668;37.858;2023-04-23T13:12:12;99628.53;;;18.02;26.99
34674;BME280;20879;55.668;37.858;2023-04-23T13:14:41;99636.91;;;18.10;27.06
34674;BME280;20879;55.668;37.858;2023-04-23T13:17:10;99641.03;;;18.14;26.82
34674;BME280;20879;55.668;37.858;2023-04-23T13:19:45;99623.06;;;18.06;27.19
34674;BME280;20879;55.668;37.858;2023-04-23T13:22:16;99640.06;;;18.16;27.01
34674;BME280;20879;55.668;37.858;2023-04-23T13:24:46;99634.44;;;18.24;27.05
34674;BME280;20879;55.668;37.858;2023-04-23T13:27:15;99634.50;;;18.23;26.96
34674;BME280;20879;55.668;37.858;2023-04-23T13:29:44;99643.16;;;18.25;27.05
34674;BME280;20879;55.668;37.858;2023-04-23T13:32:13;99638.91;;;18.22;26.96